createdAt,value
2019-04-30T00:01:39.334Z,6.39
2019-04-30T00:06:46.393Z,6.57
2019-04-30T00:11:57.984Z,5.21
2019-04-30T00:16:59.258Z,7.47
2019-04-30T00:22:06.649Z,6.81
2019-04-30T00:27:15.100Z,6.41
2019-04-30T00:32:21.802Z,5.92
2019-04-30T00:37:29.640Z,6.22
2019-04-30T00:42:37.245Z,7.99
2019-04-30T00:47:47.767Z,6.42
2019-04-30T00:52:45.763Z,7.65
2019-04-30T00:57:52.493Z,7.10
2019-04-30T01:03:00.881Z,8.56
2019-04-30T01:08:01.727Z,7.18
2019-04-30T01:13:11.936Z,7.99
2019-04-30T01:18:09.337Z,8.31
2019-04-30T01:23:19.530Z,9.18
2019-04-30T01:28:19.993Z,11.22
2019-04-30T01:33:19.535Z,12.49
2019-04-30T01:38:26.407Z,13.31
2019-04-30T01:43:34.686Z,15.96
2019-04-30T01:48:43.673Z,15.03
2019-04-30T01:53:45.008Z,14.23
2019-04-30T01:58:51.986Z,14.98
2019-04-30T02:03:58.852Z,14.86
2019-04-30T02:09:05.790Z,15.28
2019-04-30T02:14:12.834Z,14.86
2019-04-30T02:19:20.065Z,16.20
2019-04-30T02:24:28.858Z,16.17
2019-04-30T02:29:35.948Z,17.01
2019-04-30T02:34:44.393Z,17.94
2019-04-30T02:39:51.573Z,19.39
2019-04-30T02:45:00.121Z,18.52
2019-04-30T02:50:14.094Z,18.91
2019-04-30T02:55:09.453Z,19.19
2019-04-30T03:00:16.502Z,17.25
2019-04-30T03:05:23.315Z,16.46
2019-04-30T03:10:30.439Z,15.84
2019-04-30T03:15:39.253Z,16.73
2019-04-30T03:20:46.080Z,15.54
2019-04-30T03:25:53.032Z,17.74
2019-04-30T03:31:04.228Z,19.26
2019-04-30T03:36:02.570Z,18.92
2019-04-30T03:41:09.806Z,16.83
2019-04-30T03:46:16.236Z,15.68
2019-04-30T03:51:23.192Z,16.38
2019-04-30T03:56:30.120Z,15.26
2019-04-30T04:01:39.868Z,15.69
2019-04-30T04:06:49.027Z,15.20
2019-04-30T04:11:55.903Z,15.61
2019-04-30T04:17:02.701Z,16.88
2019-04-30T04:22:11.956Z,18.14
2019-04-30T04:27:19.410Z,18.41
2019-04-30T04:32:26.155Z,19.60
2019-04-30T04:37:33.038Z,20.69
2019-04-30T04:42:39.909Z,21.17
2019-04-30T04:47:46.650Z,18.75
2019-04-30T04:52:53.517Z,20.39
2019-04-30T04:58:00.326Z,20.52
2019-04-30T05:03:09.337Z,20.89
2019-04-30T05:08:15.939Z,22.26
2019-04-30T05:13:22.802Z,23.98
2019-04-30T05:18:29.816Z,25.15
2019-04-30T05:23:37.144Z,25.51
2019-04-30T05:28:44.000Z,27.35
2019-04-30T05:33:50.790Z,27.17
2019-04-30T05:38:58.732Z,28.76
2019-04-30T05:44:05.321Z,31.10
2019-04-30T05:49:12.229Z,30.06
2019-04-30T05:54:19.117Z,31.75
2019-04-30T05:59:26.027Z,29.26
2019-04-30T06:04:32.901Z,30.19
2019-04-30T06:09:39.867Z,29.26
2019-04-30T06:14:49.272Z,30.03
2019-04-30T06:19:48.758Z,30.50
2019-04-30T06:24:59.495Z,31.77
2019-04-30T06:30:06.193Z,31.60
2019-04-30T06:35:13.193Z,32.41
2019-04-30T06:40:20.260Z,28.71
2019-04-30T06:45:28.908Z,29.14
2019-04-30T06:50:35.792Z,28.53
2019-04-30T06:55:42.698Z,27.04
2019-04-30T07:00:49.762Z,24.59
2019-04-30T07:05:58.472Z,26.08
2019-04-30T07:11:08.605Z,25.72
2019-04-30T07:16:08.386Z,26.97
2019-04-30T07:21:19.536Z,25.68
2019-04-30T07:26:28.799Z,23.96
2019-04-30T07:31:35.694Z,25.09
2019-04-30T07:36:46.812Z,24.76
2019-04-30T07:41:45.565Z,24.50
2019-04-30T07:46:52.471Z,22.00
2019-04-30T07:52:01.508Z,22.27
2019-04-30T07:57:09.517Z,20.22
2019-04-30T08:02:16.174Z,19.35
2019-04-30T08:07:22.988Z,20.11
2019-04-30T08:12:34.614Z,19.65
2019-04-30T08:17:32.585Z,18.34
2019-04-30T08:22:41.141Z,17.86
2019-04-30T08:27:49.308Z,18.22
2019-04-30T08:32:56.442Z,16.23
2019-04-30T08:38:03.867Z,16.03
2019-04-30T08:43:10.868Z,16.53
2019-04-30T08:48:18.999Z,16.60
2019-04-30T08:53:29.214Z,15.12
2019-04-30T08:58:29.336Z,15.62
2019-04-30T09:03:35.938Z,15.42
2019-04-30T09:08:42.865Z,15.10
2019-04-30T09:13:49.788Z,14.69
2019-04-30T09:18:56.958Z,14.78
2019-04-30T09:24:03.727Z,14.63
2019-04-30T09:29:10.517Z,15.22
2019-04-30T09:34:20.652Z,15.45
2019-04-30T09:39:19.513Z,17.43
2019-04-30T09:44:26.683Z,15.60
2019-04-30T09:49:33.509Z,16.20
2019-04-30T09:54:40.714Z,23.28
2019-04-30T09:59:48.609Z,21.75
2019-04-30T10:04:56.300Z,18.50
2019-04-30T10:10:03.211Z,16.85
2019-04-30T10:15:10.966Z,16.77
2019-04-30T10:20:17.944Z,17.23
2019-04-30T10:25:25.057Z,18.59
2019-04-30T10:30:31.849Z,18.25
2019-04-30T10:35:38.775Z,16.48
2019-04-30T10:40:45.691Z,17.82
2019-04-30T10:45:52.728Z,17.26
2019-04-30T10:50:59.654Z,18.02
2019-04-30T10:56:06.554Z,18.90
2019-04-30T11:01:13.457Z,18.80
2019-04-30T11:06:20.529Z,19.90
2019-04-30T11:11:28.267Z,19.62
2019-04-30T11:16:37.212Z,21.85
2019-04-30T11:21:44.739Z,23.07
2019-04-30T11:26:52.619Z,24.70
2019-04-30T11:32:00.655Z,45.35
2019-04-30T11:37:07.985Z,23.44
2019-04-30T11:42:15.553Z,19.44
2019-04-30T11:47:22.666Z,23.14
2019-04-30T11:52:29.976Z,43.22
2019-04-30T11:57:36.987Z,20.78
2019-04-30T12:02:55.838Z,19.55
2019-04-30T12:07:52.853Z,19.29
2019-04-30T12:13:00.114Z,18.95
2019-04-30T12:18:07.473Z,15.70
2019-04-30T12:23:14.344Z,16.55
2019-04-30T12:28:22.138Z,25.48
2019-04-30T12:33:29.507Z,20.83
2019-04-30T12:38:36.689Z,23.09
2019-04-30T12:43:43.885Z,21.74
2019-04-30T12:48:51.041Z,22.10
2019-04-30T12:53:58.071Z,22.53
2019-04-30T12:59:04.973Z,22.71
2019-04-30T13:04:12.278Z,22.58
2019-04-30T13:09:20.305Z,23.37
2019-04-30T13:14:30.112Z,23.43
2019-04-30T13:18:00.318Z,21.02
2019-04-30T13:19:45.973Z,11.41
2019-04-30T13:20:39.275Z,19.02
2019-04-30T13:30:30.091Z,23.02
2019-04-30T14:02:20.132Z,28.62
2019-04-30T15:32:05.397Z,27.78
2019-04-30T15:50:43.387Z,27.83
2019-04-30T16:13:01.154Z,29.95
